sensor_id;sensor_type;location;lat;lon;timestamp;P1;durP1;ratioP1;P2;durP2;ratioP2
1204;SDS011;592;48.764;9.174;2022-11-12T00:00:07;17.77;;;11.27;;
1204;SDS011;592;48.764;9.174;2022-11-12T00:02:35;22.00;;;11.53;;
1204;SDS011;592;48.764;9.174;2022-11-12T00:05:02;13.90;;;10.50;;
1204;SDS011;592;48.764;9.174;2022-11-12T00:07:30;17.07;;;10.53;;
1204;SDS011;592;48.764;9.174;2022-11-12T00:09:57;15.50;;;10.03;;
1204;SDS011;592;48.764;9.174;2022-11-12T00:12:24;14.80;;;9.80;;
1204;SDS011;592;48.764;9.174;2022-11-12T00:14:51;14.00;;;9.33;;
1204;SDS011;592;48.764;9.174;2022-11-12T00:17:17;15.60;;;9.87;;
1204;SDS011;592;48.764;9.174;2022-11-12T00:19:44;17.60;;;9.77;;
1204;SDS011;592;48.764;9.174;2022-11-12T00:22:11;14.30;;;9.17;;
1204;SDS011;592;48.764;9.174;2022-11-12T00:24:39;15.30;;;9.20;;
1204;SDS011;592;48.764;9.174;2022-11-12T00:27:06;19.37;;;10.13;;
1204;SDS011;592;48.764;9.174;2022-11-12T00:29:32;14.73;;;10.40;;
1204;SDS011;592;48.764;9.174;2022-11-12T00:31:59;14.10;;;9.30;;
1204;SDS011;592;48.764;9.174;2022-11-12T00:34:26;15.03;;;10.10;;
1204;SDS011;592;48.764;9.174;2022-11-12T00:36:52;14.00;;;9.03;;
1204;SDS011;592;48.764;9.174;2022-11-12T00:39:19;16.20;;;8.60;;
1204;SDS011;592;48.764;9.174;2022-11-12T00:41:47;13.00;;;9.00;;
1204;SDS011;592;48.764;9.174;2022-11-12T00:44:14;19.57;;;9.77;;
1204;SDS011;592;48.764;9.174;2022-11-12T00:46:41;15.07;;;9.93;;
1204;SDS011;592;48.764;9.174;2022-11-12T00:49:07;14.80;;;10.20;;
1204;SDS011;592;48.764;9.174;2022-11-12T00:51:34;15.63;;;10.87;;
1204;SDS011;592;48.764;9.174;2022-11-12T00:54:01;12.70;;;9.17;;
1204;SDS011;592;48.764;9.174;2022-11-12T00:56:28;12.57;;;9.07;;
1204;SDS011;592;48.764;9.174;2022-11-12T00:58:56;14.50;;;8.97;;
1204;SDS011;592;48.764;9.174;2022-11-12T01:01:23;15.77;;;9.70;;
1204;SDS011;592;48.764;9.174;2022-11-12T01:03:50;12.53;;;9.03;;
1204;SDS011;592;48.764;9.174;2022-11-12T01:06:18;14.30;;;8.80;;
1204;SDS011;592;48.764;9.174;2022-11-12T01:08:47;12.77;;;8.70;;
1204;SDS011;592;48.764;9.174;2022-11-12T01:11:14;11.87;;;8.33;;
1204;SDS011;592;48.764;9.174;2022-11-12T01:13:44;11.80;;;7.93;;
1204;SDS011;592;48.764;9.174;2022-11-12T01:16:13;11.77;;;8.20;;
1204;SDS011;592;48.764;9.174;2022-11-12T01:18:41;13.70;;;8.40;;
1204;SDS011;592;48.764;9.174;2022-11-12T01:21:09;13.00;;;8.30;;
1204;SDS011;592;48.764;9.174;2022-11-12T01:23:37;11.93;;;7.63;;
1204;SDS011;592;48.764;9.174;2022-11-12T01:26:05;11.70;;;8.10;;
1204;SDS011;592;48.764;9.174;2022-11-12T01:28:32;14.17;;;9.37;;
1204;SDS011;592;48.764;9.174;2022-11-12T01:31:08;11.30;;;7.30;;
1204;SDS011;592;48.764;9.174;2022-11-12T01:33:38;16.90;;;8.20;;
1204;SDS011;592;48.764;9.174;2022-11-12T01:36:05;12.03;;;8.20;;
1204;SDS011;592;48.764;9.174;2022-11-12T01:38:32;11.10;;;8.00;;
1204;SDS011;592;48.764;9.174;2022-11-12T01:40:59;11.40;;;7.97;;
1204;SDS011;592;48.764;9.174;2022-11-12T01:43:26;12.20;;;8.40;;
1204;SDS011;592;48.764;9.174;2022-11-12T01:45:53;11.87;;;7.97;;
1204;SDS011;592;48.764;9.174;2022-11-12T01:48:22;13.47;;;8.80;;
1204;SDS011;592;48.764;9.174;2022-11-12T01:50:52;11.50;;;8.47;;
1204;SDS011;592;48.764;9.174;2022-11-12T01:53:20;14.70;;;9.40;;
1204;SDS011;592;48.764;9.174;2022-11-12T01:55:50;13.17;;;8.80;;
1204;SDS011;592;48.764;9.174;2022-11-12T01:58:18;11.33;;;8.23;;
1204;SDS011;592;48.764;9.174;2022-11-12T02:00:48;12.30;;;8.20;;
1204;SDS011;592;48.764;9.174;2022-11-12T02:03:18;10.80;;;8.30;;
1204;SDS011;592;48.764;9.174;2022-11-12T02:05:47;10.70;;;7.60;;
1204;SDS011;592;48.764;9.174;2022-11-12T02:08:17;13.03;;;8.30;;
1204;SDS011;592;48.764;9.174;2022-11-12T02:10:45;11.43;;;7.70;;
1204;SDS011;592;48.764;9.174;2022-11-12T02:13:13;12.80;;;8.37;;
1204;SDS011;592;48.764;9.174;2022-11-12T02:15:58;12.00;;;8.60;;
1204;SDS011;592;48.764;9.174;2022-11-12T02:18:25;13.70;;;8.63;;
1204;SDS011;592;48.764;9.174;2022-11-12T02:20:52;12.77;;;7.97;;
1204;SDS011;592;48.764;9.174;2022-11-12T02:23:22;13.90;;;8.30;;
1204;SDS011;592;48.764;9.174;2022-11-12T02:25:48;12.90;;;8.53;;
1204;SDS011;592;48.764;9.174;2022-11-12T02:28:15;14.90;;;8.23;;
1204;SDS011;592;48.764;9.174;2022-11-12T02:30:43;10.40;;;7.80;;
1204;SDS011;592;48.764;9.174;2022-11-12T02:33:11;11.57;;;7.97;;
1204;SDS011;592;48.764;9.174;2022-11-12T02:35:38;11.63;;;8.73;;
1204;SDS011;592;48.764;9.174;2022-11-12T02:38:05;10.90;;;8.23;;
1204;SDS011;592;48.764;9.174;2022-11-12T02:40:34;12.13;;;8.87;;
1204;SDS011;592;48.764;9.174;2022-11-12T02:43:01;12.40;;;8.20;;
1204;SDS011;592;48.764;9.174;2022-11-12T02:45:28;12.80;;;8.20;;
1204;SDS011;592;48.764;9.174;2022-11-12T02:47:56;13.63;;;7.23;;
1204;SDS011;592;48.764;9.174;2022-11-12T02:50:22;10.70;;;7.60;;
1204;SDS011;592;48.764;9.174;2022-11-12T02:52:49;16.73;;;8.20;;
1204;SDS011;592;48.764;9.174;2022-11-12T02:55:16;15.30;;;8.00;;
1204;SDS011;592;48.764;9.174;2022-11-12T02:57:44;12.50;;;8.50;;
1204;SDS011;592;48.764;9.174;2022-11-12T03:00:11;12.97;;;8.27;;
1204;SDS011;592;48.764;9.174;2022-11-12T03:02:38;11.60;;;7.93;;
1204;SDS011;592;48.764;9.174;2022-11-12T03:05:07;10.80;;;8.03;;
1204;SDS011;592;48.764;9.174;2022-11-12T03:07:34;11.77;;;7.70;;
1204;SDS011;592;48.764;9.174;2022-11-12T03:10:01;11.33;;;7.40;;
1204;SDS011;592;48.764;9.174;2022-11-12T03:12:29;11.20;;;7.00;;
1204;SDS011;592;48.764;9.174;2022-11-12T03:14:57;9.97;;;7.60;;
1204;SDS011;592;48.764;9.174;2022-11-12T03:17:24;9.33;;;6.80;;
1204;SDS011;592;48.764;9.174;2022-11-12T03:19:51;10.73;;;7.30;;
1204;SDS011;592;48.764;9.174;2022-11-12T03:22:17;12.07;;;7.80;;
1204;SDS011;592;48.764;9.174;2022-11-12T03:24:44;13.60;;;7.70;;
1204;SDS011;592;48.764;9.174;2022-11-12T03:27:11;11.73;;;6.90;;
1204;SDS011;592;48.764;9.174;2022-11-12T03:29:37;9.97;;;7.13;;
1204;SDS011;592;48.764;9.174;2022-11-12T03:32:05;10.47;;;6.73;;
1204;SDS011;592;48.764;9.174;2022-11-12T03:34:32;10.80;;;7.10;;
1204;SDS011;592;48.764;9.174;2022-11-12T03:36:59;9.63;;;7.00;;
1204;SDS011;592;48.764;9.174;2022-11-12T03:39:27;8.80;;;6.23;;
1204;SDS011;592;48.764;9.174;2022-11-12T03:41:53;10.97;;;6.30;;
1204;SDS011;592;48.764;9.174;2022-11-12T03:44:20;8.33;;;6.23;;
1204;SDS011;592;48.764;9.174;2022-11-12T03:46:47;11.30;;;7.30;;
1204;SDS011;592;48.764;9.174;2022-11-12T03:49:15;9.90;;;6.80;;
1204;SDS011;592;48.764;9.174;2022-11-12T03:51:42;9.10;;;6.60;;
1204;SDS011;592;48.764;9.174;2022-11-12T03:54:08;8.97;;;6.40;;
1204;SDS011;592;48.764;9.174;2022-11-12T03:56:35;8.40;;;6.30;;
1204;SDS011;592;48.764;9.174;2022-11-12T03:59:02;8.57;;;6.60;;
1204;SDS011;592;48.764;9.174;2022-11-12T04:01:29;10.63;;;7.00;;
1204;SDS011;592;48.764;9.174;2022-11-12T04:03:55;10.10;;;6.07;;
1204;SDS011;592;48.764;9.174;2022-11-12T04:06:24;10.20;;;6.63;;
1204;SDS011;592;48.764;9.174;2022-11-12T04:09:08;9.27;;;6.27;;
1204;SDS011;592;48.764;9.174;2022-11-12T04:11:35;14.70;;;7.17;;
1204;SDS011;592;48.764;9.174;2022-11-12T04:14:01;9.90;;;6.33;;
1204;SDS011;592;48.764;9.174;2022-11-12T04:16:27;9.03;;;6.70;;
1204;SDS011;592;48.764;9.174;2022-11-12T04:19:11;8.67;;;6.27;;
1204;SDS011;592;48.764;9.174;2022-11-12T04:21:59;9.13;;;5.97;;
1204;SDS011;592;48.764;9.174;2022-11-12T04:24:29;8.50;;;5.43;;
1204;SDS011;592;48.764;9.174;2022-11-12T04:27:15;8.20;;;5.83;;
1204;SDS011;592;48.764;9.174;2022-11-12T04:29:43;10.80;;;6.33;;
1204;SDS011;592;48.764;9.174;2022-11-12T04:32:29;8.53;;;6.20;;
1204;SDS011;592;48.764;9.174;2022-11-12T04:34:57;8.40;;;6.07;;
1204;SDS011;592;48.764;9.174;2022-11-12T04:37:27;9.50;;;6.53;;
1204;SDS011;592;48.764;9.174;2022-11-12T04:40:08;8.63;;;5.60;;
1204;SDS011;592;48.764;9.174;2022-11-12T04:42:49;12.73;;;5.90;;
1204;SDS011;592;48.764;9.174;2022-11-12T04:45:34;8.77;;;5.90;;
1204;SDS011;592;48.764;9.174;2022-11-12T04:48:01;9.47;;;5.97;;
1204;SDS011;592;48.764;9.174;2022-11-12T04:50:27;7.90;;;5.70;;
1204;SDS011;592;48.764;9.174;2022-11-12T04:52:56;8.63;;;5.23;;
1204;SDS011;592;48.764;9.174;2022-11-12T04:55:22;8.10;;;5.13;;
1204;SDS011;592;48.764;9.174;2022-11-12T04:57:49;7.57;;;5.10;;
1204;SDS011;592;48.764;9.174;2022-11-12T05:00:16;7.83;;;5.17;;
1204;SDS011;592;48.764;9.174;2022-11-12T05:02:43;8.70;;;5.27;;
1204;SDS011;592;48.764;9.174;2022-11-12T05:05:10;8.17;;;5.33;;
1204;SDS011;592;48.764;9.174;2022-11-12T05:07:36;8.50;;;5.87;;
1204;SDS011;592;48.764;9.174;2022-11-12T05:10:05;8.70;;;5.20;;
1204;SDS011;592;48.764;9.174;2022-11-12T05:12:33;8.07;;;5.30;;
1204;SDS011;592;48.764;9.174;2022-11-12T05:15:00;8.33;;;5.30;;
1204;SDS011;592;48.764;9.174;2022-11-12T05:17:26;7.00;;;5.13;;
1204;SDS011;592;48.764;9.174;2022-11-12T05:19:53;8.53;;;5.83;;
1204;SDS011;592;48.764;9.174;2022-11-12T05:22:20;9.13;;;5.93;;
1204;SDS011;592;48.764;9.174;2022-11-12T05:24:46;8.03;;;4.90;;
1204;SDS011;592;48.764;9.174;2022-11-12T05:27:15;7.40;;;5.30;;
1204;SDS011;592;48.764;9.174;2022-11-12T05:29:43;7.13;;;4.90;;
1204;SDS011;592;48.764;9.174;2022-11-12T05:32:11;9.23;;;5.43;;
1204;SDS011;592;48.764;9.174;2022-11-12T05:34:39;8.10;;;5.50;;
1204;SDS011;592;48.764;9.174;2022-11-12T05:37:06;6.83;;;5.00;;
1204;SDS011;592;48.764;9.174;2022-11-12T05:39:34;9.80;;;4.50;;
1204;SDS011;592;48.764;9.174;2022-11-12T05:42:01;7.50;;;5.13;;
1204;SDS011;592;48.764;9.174;2022-11-12T05:44:29;7.80;;;4.90;;
1204;SDS011;592;48.764;9.174;2022-11-12T05:46:56;8.93;;;5.03;;
1204;SDS011;592;48.764;9.174;2022-11-12T05:49:22;6.60;;;4.70;;
1204;SDS011;592;48.764;9.174;2022-11-12T05:51:49;7.43;;;5.03;;
1204;SDS011;592;48.764;9.174;2022-11-12T05:54:16;6.60;;;4.67;;
1204;SDS011;592;48.764;9.174;2022-11-12T05:56:43;7.30;;;5.10;;
1204;SDS011;592;48.764;9.174;2022-11-12T05:59:11;6.93;;;4.40;;
1204;SDS011;592;48.764;9.174;2022-11-12T06:01:40;8.80;;;5.03;;
1204;SDS011;592;48.764;9.174;2022-11-12T06:04:09;8.80;;;5.00;;
1204;SDS011;592;48.764;9.174;2022-11-12T06:06:36;11.70;;;5.33;;
1204;SDS011;592;48.764;9.174;2022-11-12T06:09:03;7.03;;;4.93;;
1204;SDS011;592;48.764;9.174;2022-11-12T06:11:31;6.40;;;4.30;;
1204;SDS011;592;48.764;9.174;2022-11-12T06:13:58;7.93;;;5.33;;
1204;SDS011;592;48.764;9.174;2022-11-12T06:16:24;7.27;;;5.03;;
1204;SDS011;592;48.764;9.174;2022-11-12T06:18:52;7.47;;;5.03;;
1204;SDS011;592;48.764;9.174;2022-11-12T06:21:19;15.73;;;6.07;;
1204;SDS011;592;48.764;9.174;2022-11-12T06:23:49;9.27;;;5.60;;
1204;SDS011;592;48.764;9.174;2022-11-12T06:26:17;7.87;;;5.33;;
1204;SDS011;592;48.764;9.174;2022-11-12T06:28:45;6.87;;;4.20;;
1204;SDS011;592;48.764;9.174;2022-11-12T06:31:13;7.00;;;4.93;;
1204;SDS011;592;48.764;9.174;2022-11-12T06:33:41;8.80;;;5.43;;
1204;SDS011;592;48.764;9.174;2022-11-12T06:36:10;8.20;;;5.10;;
1204;SDS011;592;48.764;9.174;2022-11-12T06:38:39;7.10;;;5.13;;
1204;SDS011;592;48.764;9.174;2022-11-12T06:41:06;7.00;;;4.60;;
1204;SDS011;592;48.764;9.174;2022-11-12T06:43:34;9.47;;;5.70;;
1204;SDS011;592;48.764;9.174;2022-11-12T06:46:02;9.03;;;5.20;;
1204;SDS011;592;48.764;9.174;2022-11-12T06:48:30;8.10;;;4.93;;
1204;SDS011;592;48.764;9.174;2022-11-12T06:50:57;7.00;;;4.80;;
1204;SDS011;592;48.764;9.174;2022-11-12T06:53:32;8.50;;;5.50;;
1204;SDS011;592;48.764;9.174;2022-11-12T06:56:02;9.53;;;5.60;;
1204;SDS011;592;48.764;9.174;2022-11-12T06:58:29;6.50;;;4.90;;
1204;SDS011;592;48.764;9.174;2022-11-12T07:00:56;8.37;;;5.60;;
1204;SDS011;592;48.764;9.174;2022-11-12T07:03:23;13.43;;;5.57;;
1204;SDS011;592;48.764;9.174;2022-11-12T07:05:49;7.37;;;4.93;;
1204;SDS011;592;48.764;9.174;2022-11-12T07:08:16;9.33;;;5.67;;
1204;SDS011;592;48.764;9.174;2022-11-12T07:10:44;8.13;;;5.70;;
1204;SDS011;592;48.764;9.174;2022-11-12T07:13:11;8.87;;;5.43;;
1204;SDS011;592;48.764;9.174;2022-11-12T07:15:38;7.43;;;5.10;;
1204;SDS011;592;48.764;9.174;2022-11-12T07:18:04;7.70;;;5.10;;
1204;SDS011;592;48.764;9.174;2022-11-12T07:20:31;8.07;;;5.60;;
1204;SDS011;592;48.764;9.174;2022-11-12T07:22:58;9.20;;;5.97;;
1204;SDS011;592;48.764;9.174;2022-11-12T07:25:26;7.90;;;5.10;;
1204;SDS011;592;48.764;9.174;2022-11-12T07:27:54;7.20;;;5.03;;
1204;SDS011;592;48.764;9.174;2022-11-12T07:30:21;8.23;;;5.00;;
1204;SDS011;592;48.764;9.174;2022-11-12T07:32:47;7.80;;;5.27;;
1204;SDS011;592;48.764;9.174;2022-11-12T07:35:14;7.77;;;5.30;;
1204;SDS011;592;48.764;9.174;2022-11-12T07:37:41;9.90;;;5.50;;
1204;SDS011;592;48.764;9.174;2022-11-12T07:40:08;7.80;;;5.37;;
1204;SDS011;592;48.764;9.174;2022-11-12T07:42:35;11.27;;;6.03;;
1204;SDS011;592;48.764;9.174;2022-11-12T07:45:04;9.60;;;5.27;;
1204;SDS011;592;48.764;9.174;2022-11-12T07:47:31;9.93;;;5.90;;
1204;SDS011;592;48.764;9.174;2022-11-12T07:49:58;8.03;;;5.47;;
1204;SDS011;592;48.764;9.174;2022-11-12T07:52:25;9.47;;;6.10;;
1204;SDS011;592;48.764;9.174;2022-11-12T07:54:52;8.10;;;5.83;;
1204;SDS011;592;48.764;9.174;2022-11-12T07:57:18;8.20;;;5.40;;
1204;SDS011;592;48.764;9.174;2022-11-12T07:59:45;8.10;;;5.33;;
1204;SDS011;592;48.764;9.174;2022-11-12T08:02:13;9.23;;;5.60;;
1204;SDS011;592;48.764;9.174;2022-11-12T08:04:40;8.30;;;5.53;;
1204;SDS011;592;48.764;9.174;2022-11-12T08:07:07;9.30;;;5.53;;
1204;SDS011;592;48.764;9.174;2022-11-12T08:09:33;9.77;;;6.13;;
1204;SDS011;592;48.764;9.174;2022-11-12T08:12:00;11.33;;;5.80;;
1204;SDS011;592;48.764;9.174;2022-11-12T08:14:27;10.23;;;6.00;;
1204;SDS011;592;48.764;9.174;2022-11-12T08:16:53;8.13;;;5.30;;
1204;SDS011;592;48.764;9.174;2022-11-12T08:19:22;8.27;;;5.47;;
1204;SDS011;592;48.764;9.174;2022-11-12T08:21:48;9.90;;;5.83;;
1204;SDS011;592;48.764;9.174;2022-11-12T08:24:15;9.27;;;5.27;;
1204;SDS011;592;48.764;9.174;2022-11-12T08:26:42;9.27;;;5.57;;
1204;SDS011;592;48.764;9.174;2022-11-12T08:29:08;7.70;;;5.03;;
1204;SDS011;592;48.764;9.174;2022-11-12T08:31:35;8.53;;;5.83;;
1204;SDS011;592;48.764;9.174;2022-11-12T08:34:02;11.20;;;6.17;;
1204;SDS011;592;48.764;9.174;2022-11-12T08:36:38;8.17;;;5.43;;
1204;SDS011;592;48.764;9.174;2022-11-12T08:39:05;9.50;;;6.03;;
1204;SDS011;592;48.764;9.174;2022-11-12T08:41:33;13.90;;;7.40;;
1204;SDS011;592;48.764;9.174;2022-11-12T08:44:00;9.53;;;6.77;;
1204;SDS011;592;48.764;9.174;2022-11-12T08:46:27;8.90;;;6.10;;
1204;SDS011;592;48.764;9.174;2022-11-12T08:48:54;10.80;;;7.20;;
1204;SDS011;592;48.764;9.174;2022-11-12T08:51:21;10.30;;;7.03;;
1204;SDS011;592;48.764;9.174;2022-11-12T08:53:49;10.57;;;6.63;;
1204;SDS011;592;48.764;9.174;2022-11-12T08:56:15;9.90;;;6.80;;
1204;SDS011;592;48.764;9.174;2022-11-12T08:58:42;10.27;;;6.70;;
1204;SDS011;592;48.764;9.174;2022-11-12T09:01:10;11.40;;;7.23;;
1204;SDS011;592;48.764;9.174;2022-11-12T09:03:37;12.00;;;7.30;;
1204;SDS011;592;48.764;9.174;2022-11-12T09:06:04;10.03;;;6.23;;
1204;SDS011;592;48.764;9.174;2022-11-12T09:08:32;11.87;;;6.90;;
1204;SDS011;592;48.764;9.174;2022-11-12T09:11:02;10.13;;;6.40;;
1204;SDS011;592;48.764;9.174;2022-11-12T09:13:29;9.17;;;6.27;;
1204;SDS011;592;48.764;9.174;2022-11-12T09:15:59;10.23;;;6.30;;
1204;SDS011;592;48.764;9.174;2022-11-12T09:18:30;10.20;;;7.13;;
1204;SDS011;592;48.764;9.174;2022-11-12T09:20:58;14.00;;;6.17;;
1204;SDS011;592;48.764;9.174;2022-11-12T09:23:26;12.80;;;6.43;;
1204;SDS011;592;48.764;9.174;2022-11-12T09:25:54;8.80;;;5.93;;
1204;SDS011;592;48.764;9.174;2022-11-12T09:28:23;9.53;;;5.90;;
1204;SDS011;592;48.764;9.174;2022-11-12T09:30:50;10.43;;;6.60;;
1204;SDS011;592;48.764;9.174;2022-11-12T09:33:19;9.37;;;6.27;;
1204;SDS011;592;48.764;9.174;2022-11-12T09:35:49;9.47;;;6.43;;
1204;SDS011;592;48.764;9.174;2022-11-12T09:38:16;10.50;;;6.43;;
1204;SDS011;592;48.764;9.174;2022-11-12T09:40:52;10.50;;;6.70;;
1204;SDS011;592;48.764;9.174;2022-11-12T09:43:41;10.50;;;7.33;;
1204;SDS011;592;48.764;9.174;2022-11-12T09:46:23;11.83;;;8.33;;
1204;SDS011;592;48.764;9.174;2022-11-12T09:48:56;11.87;;;6.73;;
1204;SDS011;592;48.764;9.174;2022-11-12T09:51:30;11.40;;;6.87;;
1204;SDS011;592;48.764;9.174;2022-11-12T09:54:00;9.93;;;7.10;;
1204;SDS011;592;48.764;9.174;2022-11-12T09:56:37;10.57;;;6.47;;
1204;SDS011;592;48.764;9.174;2022-11-12T09:59:07;9.73;;;6.70;;
1204;SDS011;592;48.764;9.174;2022-11-12T10:01:37;10.23;;;5.80;;
1204;SDS011;592;48.764;9.174;2022-11-12T10:04:17;7.90;;;5.60;;
1204;SDS011;592;48.764;9.174;2022-11-12T10:06:54;7.20;;;5.60;;
1204;SDS011;592;48.764;9.174;2022-11-12T10:09:29;7.93;;;5.50;;
1204;SDS011;592;48.764;9.174;2022-11-12T10:12:02;10.40;;;6.40;;
1204;SDS011;592;48.764;9.174;2022-11-12T10:15:02;8.60;;;5.50;;
1204;SDS011;592;48.764;9.174;2022-11-12T10:18:06;6.77;;;4.73;;
1204;SDS011;592;48.764;9.174;2022-11-12T10:20:41;8.90;;;5.80;;
1204;SDS011;592;48.764;9.174;2022-11-12T10:23:15;8.40;;;5.70;;
1204;SDS011;592;48.764;9.174;2022-11-12T10:25:44;9.27;;;6.10;;
1204;SDS011;592;48.764;9.174;2022-11-12T10:28:24;12.20;;;5.70;;
1204;SDS011;592;48.764;9.174;2022-11-12T10:30:56;7.97;;;5.37;;
1204;SDS011;592;48.764;9.174;2022-11-12T10:33:28;11.07;;;6.93;;
1204;SDS011;592;48.764;9.174;2022-11-12T10:35:57;8.70;;;6.07;;
1204;SDS011;592;48.764;9.174;2022-11-12T10:38:39;8.93;;;5.70;;
1204;SDS011;592;48.764;9.174;2022-11-12T10:41:18;12.90;;;6.07;;
1204;SDS011;592;48.764;9.174;2022-11-12T10:43:54;11.37;;;6.23;;
1204;SDS011;592;48.764;9.174;2022-11-12T10:46:34;9.20;;;6.30;;
1204;SDS011;592;48.764;9.174;2022-11-12T10:49:03;8.57;;;6.83;;
1204;SDS011;592;48.764;9.174;2022-11-12T10:51:34;10.60;;;7.13;;
1204;SDS011;592;48.764;9.174;2022-11-12T10:54:17;10.30;;;7.17;;
1204;SDS011;592;48.764;9.174;2022-11-12T10:56:46;8.47;;;6.07;;
1204;SDS011;592;48.764;9.174;2022-11-12T10:59:14;7.87;;;5.57;;
1204;SDS011;592;48.764;9.174;2022-11-12T11:01:44;11.47;;;7.10;;
1204;SDS011;592;48.764;9.174;2022-11-12T11:04:16;9.63;;;6.00;;
1204;SDS011;592;48.764;9.174;2022-11-12T11:06:56;9.70;;;6.33;;
1204;SDS011;592;48.764;9.174;2022-11-12T11:09:24;9.30;;;6.43;;
1204;SDS011;592;48.764;9.174;2022-11-12T11:11:52;11.93;;;8.00;;
1204;SDS011;592;48.764;9.174;2022-11-12T11:14:26;12.00;;;7.80;;
1204;SDS011;592;48.764;9.174;2022-11-12T11:16:57;10.30;;;7.70;;
1204;SDS011;592;48.764;9.174;2022-11-12T11:19:30;10.73;;;7.30;;
1204;SDS011;592;48.764;9.174;2022-11-12T11:22:09;10.30;;;7.80;;
1204;SDS011;592;48.764;9.174;2022-11-12T11:24:59;11.80;;;8.53;;
1204;SDS011;592;48.764;9.174;2022-11-12T11:27:34;12.30;;;8.97;;
1204;SDS011;592;48.764;9.174;2022-11-12T11:30:06;14.90;;;9.10;;
1204;SDS011;592;48.764;9.174;2022-11-12T11:32:46;14.33;;;10.17;;
1204;SDS011;592;48.764;9.174;2022-11-12T11:35:45;11.03;;;8.97;;
1204;SDS011;592;48.764;9.174;2022-11-12T11:38:20;13.37;;;9.20;;
1204;SDS011;592;48.764;9.174;2022-11-12T11:43:59;12.03;;;8.70;;
1204;SDS011;592;48.764;9.174;2022-11-12T11:46:36;12.60;;;9.43;;
1204;SDS011;592;48.764;9.174;2022-11-12T11:49:24;11.67;;;8.73;;
1204;SDS011;592;48.764;9.174;2022-11-12T11:52:27;11.97;;;8.97;;
1204;SDS011;592;48.764;9.174;2022-11-12T11:55:13;13.77;;;10.33;;
1204;SDS011;592;48.764;9.174;2022-11-12T11:57:52;13.27;;;9.77;;
1204;SDS011;592;48.764;9.174;2022-11-12T12:00:32;11.67;;;8.57;;
1204;SDS011;592;48.764;9.174;2022-11-12T12:03:10;13.90;;;9.27;;
1204;SDS011;592;48.764;9.174;2022-11-12T12:05:45;12.03;;;8.83;;
1204;SDS011;592;48.764;9.174;2022-11-12T12:08:26;10.33;;;7.90;;
1204;SDS011;592;48.764;9.174;2022-11-12T12:11:08;12.20;;;8.40;;
1204;SDS011;592;48.764;9.174;2022-11-12T12:13:42;14.80;;;8.47;;
1204;SDS011;592;48.764;9.174;2022-11-12T12:19:17;14.30;;;9.73;;
1204;SDS011;592;48.764;9.174;2022-11-12T12:21:54;11.17;;;8.87;;
1204;SDS011;592;48.764;9.174;2022-11-12T12:24:24;13.63;;;9.87;;
1204;SDS011;592;48.764;9.174;2022-11-12T12:26:55;15.33;;;9.20;;
1204;SDS011;592;48.764;9.174;2022-11-12T12:29:28;14.70;;;9.57;;
1204;SDS011;592;48.764;9.174;2022-11-12T12:32:00;11.70;;;8.80;;
1204;SDS011;592;48.764;9.174;2022-11-12T12:34:31;11.23;;;8.37;;
1204;SDS011;592;48.764;9.174;2022-11-12T12:37:05;15.93;;;9.20;;
1204;SDS011;592;48.764;9.174;2022-11-12T12:39:36;12.90;;;8.47;;
1204;SDS011;592;48.764;9.174;2022-11-12T12:42:11;12.07;;;8.27;;
1204;SDS011;592;48.764;9.174;2022-11-12T12:44:43;12.50;;;8.90;;
1204;SDS011;592;48.764;9.174;2022-11-12T12:47:30;13.70;;;10.13;;
1204;SDS011;592;48.764;9.174;2022-11-12T12:50:02;11.27;;;8.77;;
1204;SDS011;592;48.764;9.174;2022-11-12T12:55:34;13.47;;;8.83;;
1204;SDS011;592;48.764;9.174;2022-11-12T12:58:03;10.83;;;7.60;;
1204;SDS011;592;48.764;9.174;2022-11-12T13:00:31;13.03;;;8.50;;
1204;SDS011;592;48.764;9.174;2022-11-12T13:03:00;9.57;;;7.27;;
1204;SDS011;592;48.764;9.174;2022-11-12T13:05:31;11.07;;;7.73;;
1204;SDS011;592;48.764;9.174;2022-11-12T13:08:01;11.03;;;8.33;;
1204;SDS011;592;48.764;9.174;2022-11-12T13:13:24;11.90;;;9.00;;
1204;SDS011;592;48.764;9.174;2022-11-12T13:15:56;10.70;;;8.40;;
1204;SDS011;592;48.764;9.174;2022-11-12T13:21:23;12.80;;;7.83;;
1204;SDS011;592;48.764;9.174;2022-11-12T13:23:52;12.17;;;8.20;;
1204;SDS011;592;48.764;9.174;2022-11-12T13:26:41;12.33;;;7.40;;
1204;SDS011;592;48.764;9.174;2022-11-12T13:29:23;9.80;;;7.43;;
1204;SDS011;592;48.764;9.174;2022-11-12T13:35:20;10.40;;;7.40;;
1204;SDS011;592;48.764;9.174;2022-11-12T13:37:51;13.43;;;7.83;;
1204;SDS011;592;48.764;9.174;2022-11-12T13:40:22;10.07;;;7.10;;
1204;SDS011;592;48.764;9.174;2022-11-12T13:43:02;11.70;;;8.20;;
1204;SDS011;592;48.764;9.174;2022-11-12T13:45:33;14.33;;;8.97;;
1204;SDS011;592;48.764;9.174;2022-11-12T13:48:06;11.37;;;8.07;;
1204;SDS011;592;48.764;9.174;2022-11-12T13:50:37;11.80;;;7.40;;
1204;SDS011;592;48.764;9.174;2022-11-12T13:53:05;12.60;;;8.00;;
1204;SDS011;592;48.764;9.174;2022-11-12T13:55:34;10.37;;;7.23;;
1204;SDS011;592;48.764;9.174;2022-11-12T13:58:01;10.67;;;7.83;;
1204;SDS011;592;48.764;9.174;2022-11-12T14:00:28;11.60;;;7.50;;
1204;SDS011;592;48.764;9.174;2022-11-12T14:02:57;11.20;;;7.40;;
1204;SDS011;592;48.764;9.174;2022-11-12T14:05:27;14.07;;;7.30;;
1204;SDS011;592;48.764;9.174;2022-11-12T14:11:04;12.60;;;8.37;;
1204;SDS011;592;48.764;9.174;2022-11-12T14:14:03;11.90;;;7.73;;
1204;SDS011;592;48.764;9.174;2022-11-12T14:16:44;12.57;;;7.57;;
1204;SDS011;592;48.764;9.174;2022-11-12T14:22:17;11.67;;;7.30;;
1204;SDS011;592;48.764;9.174;2022-11-12T14:24:45;10.00;;;7.37;;
1204;SDS011;592;48.764;9.174;2022-11-12T14:30:15;11.23;;;8.03;;
1204;SDS011;592;48.764;9.174;2022-11-12T14:32:45;12.33;;;7.97;;
1204;SDS011;592;48.764;9.174;2022-11-12T14:35:24;13.23;;;8.47;;
1204;SDS011;592;48.764;9.174;2022-11-12T14:37:57;12.30;;;8.17;;
1204;SDS011;592;48.764;9.174;2022-11-12T14:40:29;11.43;;;7.53;;
1204;SDS011;592;48.764;9.174;2022-11-12T14:43:00;12.00;;;8.10;;
1204;SDS011;592;48.764;9.174;2022-11-12T14:45:27;12.23;;;7.07;;
1204;SDS011;592;48.764;9.174;2022-11-12T14:47:53;13.57;;;8.47;;
1204;SDS011;592;48.764;9.174;2022-11-12T14:50:23;12.37;;;7.40;;
1204;SDS011;592;48.764;9.174;2022-11-12T14:52:53;11.77;;;7.30;;
1204;SDS011;592;48.764;9.174;2022-11-12T14:55:25;10.30;;;7.50;;
1204;SDS011;592;48.764;9.174;2022-11-12T14:57:55;14.00;;;7.60;;
1204;SDS011;592;48.764;9.174;2022-11-12T15:00:38;15.20;;;8.63;;
1204;SDS011;592;48.764;9.174;2022-11-12T15:03:09;12.10;;;7.50;;
1204;SDS011;592;48.764;9.174;2022-11-12T15:05:53;10.40;;;7.27;;
1204;SDS011;592;48.764;9.174;2022-11-12T15:08:32;10.77;;;8.00;;
1204;SDS011;592;48.764;9.174;2022-11-12T15:13:47;13.13;;;7.90;;
1204;SDS011;592;48.764;9.174;2022-11-12T15:16:17;11.30;;;7.60;;
1204;SDS011;592;48.764;9.174;2022-11-12T15:19:00;11.97;;;8.27;;
1204;SDS011;592;48.764;9.174;2022-11-12T15:21:30;11.50;;;7.77;;
1204;SDS011;592;48.764;9.174;2022-11-12T15:23:59;10.07;;;7.33;;
1204;SDS011;592;48.764;9.174;2022-11-12T15:26:33;10.47;;;7.70;;
1204;SDS011;592;48.764;9.174;2022-11-12T15:29:02;12.27;;;7.00;;
1204;SDS011;592;48.764;9.174;2022-11-12T15:31:45;14.13;;;8.47;;
1204;SDS011;592;48.764;9.174;2022-11-12T15:34:23;13.90;;;9.20;;
1204;SDS011;592;48.764;9.174;2022-11-12T15:37:00;11.63;;;7.73;;
1204;SDS011;592;48.764;9.174;2022-11-12T15:39:30;13.00;;;8.30;;
1204;SDS011;592;48.764;9.174;2022-11-12T15:42:00;11.47;;;7.97;;
1204;SDS011;592;48.764;9.174;2022-11-12T15:44:30;11.43;;;8.50;;
1204;SDS011;592;48.764;9.174;2022-11-12T15:47:00;12.50;;;8.93;;
1204;SDS011;592;48.764;9.174;2022-11-12T15:49:28;13.30;;;9.17;;
1204;SDS011;592;48.764;9.174;2022-11-12T15:51:54;19.23;;;12.43;;
1204;SDS011;592;48.764;9.174;2022-11-12T15:54:21;14.83;;;10.80;;
1204;SDS011;592;48.764;9.174;2022-11-12T15:56:48;14.03;;;9.70;;
1204;SDS011;592;48.764;9.174;2022-11-12T15:59:15;12.53;;;9.00;;
1204;SDS011;592;48.764;9.174;2022-11-12T16:01:43;13.23;;;9.10;;
1204;SDS011;592;48.764;9.174;2022-11-12T16:04:11;14.17;;;9.47;;
1204;SDS011;592;48.764;9.174;2022-11-12T16:06:38;13.63;;;9.37;;
1204;SDS011;592;48.764;9.174;2022-11-12T16:09:05;13.83;;;9.13;;